Time;durP1;ratioP1;P1;durP2;ratioP2;P2;SDS_P1;SDS_P2;PMS_P1;PMS_P2;Temp;Humidity;BMP_temperature;BMP_pressure;BME280_temperature;BME280_humidity;BME280_pressure;Samples;Min_cycle;Max_cycle;Signal;HPM_P1;HPM_P2
2023/03/01 00:02:26;;;;;;;13.32;4.97;;;;;;;0.00;53.92;100887.96;1784447;80;21370;-64
2023/03/01 00:08:56;;;;;;;12.30;5.25;;;;;;;0.07;54.15;100908.16;1784478;80;21871;-62
2023/03/01 00:15:15;;;;;;;8.10;4.45;;;;;;;0.16;54.26;100905.29;1784545;80;21905;-60
2023/03/01 00:21:46;;;;;;;10.13;4.67;;;;;;;0.18;54.30;100893.34;1784514;80;21267;-59
2023/03/01 00:32:08;;;;;;;10.13;4.65;;;;;;;0.17;54.60;100886.48;1792318;80;21567;-61
2023/03/01 00:38:40;;;;;;;10.15;4.95;;;;;;;0.05;54.56;100886.30;1791677;80;21016;-58
2023/03/01 00:45:13;;;;;;;9.25;5.00;;;;;;;-0.02;54.86;100879.37;1792624;80;21104;-59
2023/03/01 00:51:48;;;;;;;9.10;4.55;;;;;;;-0.07;55.12;100883.56;1792583;80;21020;-64
2023/03/01 00:58:16;;;;;;;8.60;4.60;;;;;;;-0.13;55.25;100864.23;1792741;80;20933;-59
2023/03/01 01:04:47;;;;;;;7.58;4.85;;;;;;;-0.07;55.36;100870.73;1792517;80;21556;-59
2023/03/01 01:11:17;;;;;;;9.60;5.00;;;;;;;-0.06;55.54;100872.44;1791912;80;21104;-58
2023/03/01 01:17:36;;;;;;;9.30;5.08;;;;;;;0.01;55.67;100870.84;1792783;80;21013;-57
2023/03/01 01:24:08;;;;;;;10.35;5.35;;;;;;;0.19;55.88;100869.37;1792570;80;21020;-61
2023/03/01 01:33:29;;;;;;;13.10;4.90;;;;;;;0.45;56.14;100872.72;1784494;80;21057;-61
2023/03/01 01:39:59;;;;;;;10.32;5.00;;;;;;;0.61;56.39;100869.46;1784838;80;20942;-59
2023/03/01 01:46:32;;;;;;;9.50;4.83;;;;;;;0.84;56.64;100862.43;1784482;80;21049;-58
2023/03/01 01:53:02;;;;;;;10.85;5.08;;;;;;;1.01;56.82;100841.63;1784527;80;21200;-58
2023/03/01 01:59:34;;;;;;;9.05;5.92;;;;;;;1.23;56.97;100828.94;1784511;80;21087;-63
2023/03/01 02:06:30;;;;;;;13.53;5.95;;;;;;;1.29;57.05;100825.16;1784466;80;21101;-60
2023/03/01 02:12:48;;;;;;;11.80;7.17;;;;;;;1.40;57.29;100823.53;1784480;80;21508;-57
2023/03/01 02:19:42;;;;;;;10.00;6.85;;;;;;;1.49;57.48;100814.58;1784506;80;21048;-64
2023/03/01 02:26:42;;;;;;;13.10;8.53;;;;;;;1.66;57.75;100817.70;1634148;85;21136;-60
2023/03/01 02:32:27;;;;;;;24.77;9.60;;;;;;;1.71;57.84;100816.00;1666792;84;21400;-60
2023/03/01 02:42:57;;;;;;;18.32;9.30;;;;;;;1.87;58.20;100803.65;1662409;85;21594;-59
2023/03/01 02:49:32;;;;;;;24.12;10.85;;;;;;;1.97;58.34;100798.99;1662434;85;21090;-63
2023/03/01 02:56:05;;;;;;;20.48;11.78;;;;;;;2.03;58.43;100796.02;1680136;83;21041;-60
2023/03/01 03:02:39;;;;;;;21.85;11.03;;;;;;;2.06;58.67;100789.59;1781702;80;21082;-58
2023/03/01 03:09:15;;;;;;;20.10;11.60;;;;;;;2.10;58.89;100783.58;1781766;80;21259;-58
2023/03/01 03:15:44;;;;;;;21.75;11.90;;;;;;;2.13;59.01;100786.17;1781697;80;21323;-61
2023/03/01 03:22:18;;;;;;;22.98;13.80;;;;;;;2.16;59.20;100775.91;1781694;80;21512;-60
2023/03/01 03:28:51;;;;;;;24.72;12.70;;;;;;;2.17;59.32;100769.89;1781526;80;20970;-62
2023/03/01 03:38:34;;;;;;;23.38;11.90;;;;;;;2.22;59.68;100757.88;1790103;80;20942;-65
2023/03/01 03:45:06;;;;;;;23.83;12.58;;;;;;;2.26;59.72;100751.87;1790034;80;21068;-61
2023/03/01 03:51:37;;;;;;;23.95;12.25;;;;;;;2.21;59.85;100756.14;1790068;80;21248;-57
2023/03/01 03:58:10;;;;;;;25.43;12.98;;;;;;;2.20;60.11;100753.14;1790130;80;21526;-60
2023/03/01 04:04:41;;;;;;;20.85;12.80;;;;;;;2.18;60.19;100734.23;1790106;80;21877;-59
2023/03/01 04:11:32;;;;;;;26.73;13.90;;;;;;;2.08;60.38;100736.37;1788700;80;21685;-63
2023/03/01 04:14:04;;;;;;;19.57;12.88;;;;;;;2.07;60.49;100726.89;1790186;80;21020;-59
2023/03/01 04:16:37;;;;;;;29.82;14.03;;;;;;;2.05;60.44;100731.20;1789077;80;21769;-57
2023/03/01 04:19:09;;;;;;;26.77;13.35;;;;;;;2.06;60.63;100722.61;1790426;80;20962;-60
2023/03/01 04:21:40;;;;;;;28.07;14.28;;;;;;;2.10;60.65;100732.05;1790109;80;20965;-57
2023/03/01 04:24:10;;;;;;;25.08;13.60;;;;;;;2.10;60.72;100729.08;1790475;80;20934;-57
2023/03/01 04:26:42;;;;;;;29.10;12.88;;;;;;;2.12;60.81;100726.49;1790681;80;20973;-60
2023/03/01 04:29:13;;;;;;;35.13;13.80;;;;;;;2.12;60.81;100735.50;1790493;80;21068;-59
2023/03/01 04:31:43;;;;;;;28.40;12.85;;;;;;;2.09;60.77;100726.48;1790533;80;20925;-57
2023/03/01 04:34:15;;;;;;;29.18;14.25;;;;;;;2.01;60.83;100731.16;1790070;78;21040;-60
2023/03/01 04:36:52;;;;;;;27.95;14.18;;;;;;;1.99;60.87;100726.89;1790481;80;21037;-61
2023/03/01 04:39:23;;;;;;;21.42;13.78;;;;;;;1.92;61.08;100722.55;1790548;80;20985;-60
2023/03/01 04:41:54;;;;;;;30.70;15.55;;;;;;;1.99;61.32;100725.17;1790027;80;21088;-60
2023/03/01 04:44:23;;;;;;;29.80;14.53;;;;;;;2.03;61.31;100725.18;1790364;80;21076;-60
2023/03/01 04:46:53;;;;;;;25.15;14.38;;;;;;;2.03;61.32;100722.60;1790488;80;20997;-58
2023/03/01 04:49:25;;;;;;;29.50;13.88;;;;;;;2.03;61.30;100720.03;1790512;80;21033;-57
2023/03/01 04:55:57;;;;;;;32.45;12.85;;;;;;;2.05;61.43;100718.33;1790001;80;21043;-62
2023/03/01 04:58:29;;;;;;;27.05;13.62;;;;;;;2.07;61.60;100719.16;1790593;80;20954;-64
2023/03/01 05:01:02;;;;;;;30.40;13.68;;;;;;;2.06;61.72;100725.19;1790313;80;21009;-58
2023/03/01 05:03:35;;;;;;;35.63;13.75;;;;;;;2.01;61.71;100720.86;1757482;80;21065;-59
2023/03/01 05:06:07;;;;;;;22.20;13.28;;;;;;;2.01;61.85;100720.86;1789522;80;21481;-58
2023/03/01 05:08:38;;;;;;;31.25;15.75;;;;;;;2.03;61.73;100731.19;1790611;80;21037;-62
2023/03/01 05:11:10;;;;;;;28.70;12.82;;;;;;;2.03;61.92;100728.61;1790463;80;20961;-59
2023/03/01 05:13:41;;;;;;;27.32;13.53;;;;;;;1.97;61.70;100732.02;1790580;80;20969;-60
2023/03/01 05:16:16;;;;;;;32.03;15.00;;;;;;;1.94;61.99;100739.73;1790257;80;21014;-62
2023/03/01 05:18:50;;;;;;;25.08;13.93;;;;;;;1.96;62.11;100731.60;1759706;80;20938;-61
2023/03/01 05:25:21;;;;;;;23.90;14.28;;;;;;;1.97;62.17;100736.32;1790227;80;20930;-59
2023/03/01 05:27:51;;;;;;;29.37;14.00;;;;;;;1.95;62.38;100730.30;1790571;80;21041;-60
2023/03/01 05:30:22;;;;;;;50.45;15.55;;;;;;;1.96;62.43;100730.31;1790264;80;21060;-59
2023/03/01 05:32:55;;;;;;;27.77;14.60;;;;;;;1.98;62.50;100724.72;1790612;80;21032;-60
2023/03/01 05:35:27;;;;;;;26.33;13.80;;;;;;;1.98;62.54;100728.58;1790505;80;21060;-62
2023/03/01 05:37:57;;;;;;;27.10;15.53;;;;;;;1.95;62.56;100729.86;1790596;80;21004;-63
2023/03/01 05:40:31;;;;;;;26.73;14.15;;;;;;;1.96;62.55;100738.05;1790512;80;20965;-58
2023/03/01 05:43:01;;;;;;;22.77;15.90;;;;;;;1.96;62.73;100738.44;1790535;80;21017;-65
2023/03/01 05:45:33;;;;;;;28.27;16.15;;;;;;;1.98;62.76;100732.45;1789782;80;20945;-59
2023/03/01 05:48:05;;;;;;;35.90;18.77;;;;;;;2.04;62.97;100737.19;1759818;80;20994;-59
2023/03/01 05:50:39;;;;;;;31.62;20.35;;;;;;;2.06;62.98;100733.77;1790551;80;21040;-60
2023/03/01 05:53:14;;;;;;;39.78;19.95;;;;;;;2.09;62.99;100730.34;1789769;80;21041;-63
2023/03/01 05:55:47;;;;;;;42.62;23.62;;;;;;;2.12;63.04;100728.63;1759924;80;21025;-59
2023/03/01 05:58:21;;;;;;;41.85;22.58;;;;;;;2.12;63.02;100723.91;1790607;80;20966;-60
2023/03/01 06:00:54;;;;;;;40.52;22.82;;;;;;;2.11;63.12;100722.20;1790470;80;21012;-63
2023/03/01 06:03:25;;;;;;;41.68;19.60;;;;;;;2.13;63.23;100725.22;1790424;80;21508;-60
2023/03/01 06:06:02;;;;;;;33.48;18.65;;;;;;;2.15;63.25;100730.36;1790509;80;21004;-62
2023/03/01 06:08:34;;;;;;;24.90;17.00;;;;;;;2.17;63.39;100736.39;1790813;80;20996;-61
2023/03/01 06:11:08;;;;;;;35.15;18.23;;;;;;;2.22;63.41;100730.83;1790468;80;21687;-60
2023/03/01 06:13:42;;;;;;;42.60;17.90;;;;;;;2.25;63.43;100723.10;1790217;80;21096;-60
2023/03/01 06:16:16;;;;;;;39.53;14.93;;;;;;;2.27;63.44;100729.53;1790086;80;21040;-60
2023/03/01 06:18:47;;;;;;;32.78;14.65;;;;;;;2.28;63.55;100737.28;1790511;80;21032;-61
2023/03/01 06:21:20;;;;;;;20.88;14.23;;;;;;;2.31;63.71;100739.86;1790611;80;20973;-59
2023/03/01 06:23:51;;;;;;;36.70;12.78;;;;;;;2.34;63.66;100745.02;1790433;80;20965;-61
2023/03/01 06:26:23;;;;;;;20.70;12.73;;;;;;;2.37;63.75;100750.19;1790476;80;21056;-61
2023/03/01 06:28:53;;;;;;;22.80;12.05;;;;;;;2.38;63.79;100744.19;1789513;80;21042;-61
2023/03/01 06:31:30;;;;;;;20.75;12.25;;;;;;;2.40;63.87;100746.32;1788944;80;21054;-58
2023/03/01 06:34:02;;;;;;;23.35;12.03;;;;;;;2.41;63.89;100746.77;1789334;80;21516;-60
2023/03/01 06:36:34;;;;;;;26.60;12.55;;;;;;;2.45;63.81;100754.94;1790078;80;21044;-60
2023/03/01 06:39:07;;;;;;;35.23;12.07;;;;;;;2.44;64.24;100762.25;1790538;80;21048;-61
2023/03/01 06:41:42;;;;;;;21.37;13.60;;;;;;;2.46;64.03;100765.70;1790170;80;21025;-60
2023/03/01 06:44:13;;;;;;;20.30;13.00;;;;;;;2.49;64.12;100758.80;1790469;80;21004;-61
2023/03/01 06:46:44;;;;;;;23.75;12.65;;;;;;;2.54;64.25;100763.11;1790389;80;21045;-61
2023/03/01 06:49:16;;;;;;;18.62;12.55;;;;;;;2.58;64.33;100764.00;1790488;80;21041;-60
2023/03/01 06:51:46;;;;;;;20.65;12.37;;;;;;;2.64;64.37;100770.45;1790417;80;20989;-60
2023/03/01 06:54:17;;;;;;;18.35;12.43;;;;;;;2.66;64.33;100780.32;1789294;80;21017;-61
2023/03/01 06:56:51;;;;;;;16.62;11.63;;;;;;;2.74;64.48;100773.45;1790440;80;20997;-61
2023/03/01 06:59:22;;;;;;;22.93;12.93;;;;;;;2.80;64.49;100768.34;1790298;80;20957;-61
2023/03/01 07:01:54;;;;;;;29.42;13.25;;;;;;;2.83;64.38;100770.91;1790071;80;21123;-61
2023/03/01 07:04:24;;;;;;;22.25;12.90;;;;;;;2.93;64.54;100763.17;1759119;80;21024;-61
2023/03/01 07:06:56;;;;;;;26.07;13.20;;;;;;;3.00;64.55;100764.91;1789838;80;21056;-62
2023/03/01 07:09:30;;;;;;;31.87;14.07;;;;;;;3.06;64.55;100758.02;1788748;80;20993;-62
2023/03/01 07:12:00;;;;;;;24.98;13.40;;;;;;;3.12;64.50;100763.61;1748785;80;21040;-61
2023/03/01 07:14:33;;;;;;;24.72;12.13;;;;;;;3.17;64.66;100765.77;1789936;80;21020;-62
2023/03/01 07:17:04;;;;;;;19.15;13.05;;;;;;;3.26;64.64;100768.34;1790412;80;20957;-60
2023/03/01 07:19:35;;;;;;;19.30;12.78;;;;;;;3.32;64.74;100765.74;1790458;80;21060;-62
2023/03/01 07:22:07;;;;;;;21.33;13.35;;;;;;;3.38;64.78;100771.33;1790400;80;21021;-59
2023/03/01 07:24:38;;;;;;;17.67;12.60;;;;;;;3.46;64.78;100767.45;1790768;80;21011;-60
2023/03/01 07:27:10;;;;;;;18.80;12.78;;;;;;;3.54;64.84;100766.58;1790638;80;21017;-62
2023/03/01 07:29:44;;;;;;;22.00;12.68;;;;;;;3.65;64.83;100769.14;1790629;80;21064;-60
2023/03/01 07:32:15;;;;;;;26.07;12.10;;;;;;;3.80;64.96;100772.97;1790469;80;20997;-62
2023/03/01 07:34:49;;;;;;;17.55;11.45;;;;;;;3.94;64.83;100768.20;1790145;80;21524;-61
2023/03/01 07:37:20;;;;;;;21.15;13.25;;;;;;;4.02;64.73;100769.03;1790505;80;21029;-61
2023/03/01 07:39:50;;;;;;;22.48;13.68;;;;;;;4.10;64.94;100767.28;1790706;80;20961;-61
2023/03/01 07:42:23;;;;;;;25.88;13.80;;;;;;;4.21;64.84;100765.51;1790624;80;21033;-61
2023/03/01 07:44:56;;;;;;;20.15;13.13;;;;;;;4.34;64.89;100765.44;1790332;80;21437;-60
2023/03/01 07:47:26;;;;;;;20.85;11.50;;;;;;;4.44;64.85;100764.53;1790560;80;20953;-61
2023/03/01 07:50:03;;;;;;;18.35;10.78;;;;;;;4.52;64.95;100762.77;1790230;80;21044;-62
2023/03/01 07:52:34;;;;;;;24.75;11.60;;;;;;;4.70;64.87;100768.25;1790444;80;21025;-60
2023/03/01 07:55:04;;;;;;;19.00;12.82;;;;;;;4.77;64.85;100765.20;1790664;80;20984;-61
2023/03/01 07:57:35;;;;;;;34.48;15.68;;;;;;;4.86;64.92;100762.54;1790693;80;21016;-61
2023/03/01 08:00:09;;;;;;;20.27;12.70;;;;;;;4.93;64.87;100759.05;1790588;80;21000;-61
2023/03/01 08:02:42;;;;;;;22.42;13.68;;;;;;;4.96;64.80;100751.27;1790403;80;21005;-60
2023/03/01 08:05:12;;;;;;;28.05;19.23;;;;;;;5.02;64.70;100747.33;1790604;80;20941;-61
2023/03/01 08:07:46;;;;;;;20.72;12.20;;;;;;;5.12;64.82;100747.65;1790662;80;21005;-61
2023/03/01 08:10:17;;;;;;;19.42;11.68;;;;;;;5.14;64.69;100753.68;1790597;80;21037;-60
2023/03/01 08:12:50;;;;;;;16.95;11.35;;;;;;;5.20;64.81;100754.51;1790586;80;20996;-61
2023/03/01 08:15:22;;;;;;;14.90;10.38;;;;;;;5.29;64.78;100744.05;1790583;80;20978;-62
2023/03/01 08:17:53;;;;;;;13.30;9.68;;;;;;;5.34;64.67;100740.99;1790614;80;20957;-61
2023/03/01 08:20:25;;;;;;;12.28;9.80;;;;;;;5.41;64.69;100740.52;1790736;80;21021;-61
2023/03/01 08:22:58;;;;;;;14.43;10.15;;;;;;;5.55;64.84;100738.20;1790464;80;20962;-61
2023/03/01 08:25:29;;;;;;;15.70;10.68;;;;;;;5.84;64.90;100740.45;1790636;80;21029;-61
2023/03/01 08:28:02;;;;;;;13.62;10.18;;;;;;;5.98;64.58;100741.63;1790564;80;21057;-61
2023/03/01 08:30:35;;;;;;;14.98;10.23;;;;;;;5.99;64.56;100740.77;1790554;80;21019;-60
2023/03/01 08:33:07;;;;;;;12.82;9.90;;;;;;;6.02;64.62;100732.95;1759719;80;21025;-61
2023/03/01 08:35:40;;;;;;;14.75;9.85;;;;;;;6.00;64.40;100733.41;1790462;79;21025;-60
2023/03/01 08:38:10;;;;;;;15.20;9.85;;;;;;;6.07;64.59;100726.83;1790684;80;21060;-61
2023/03/01 08:40:42;;;;;;;15.65;11.18;;;;;;;6.28;64.74;100726.56;1790774;80;21036;-61
2023/03/01 08:43:18;;;;;;;13.05;10.10;;;;;;;6.47;64.60;100725.43;1790600;80;21064;-61
2023/03/01 08:45:50;;;;;;;14.80;10.43;;;;;;;6.59;64.54;100722.23;1790642;80;21481;-61
2023/03/01 08:48:20;;;;;;;18.05;11.40;;;;;;;6.72;64.37;100714.66;1790514;80;20922;-61
2023/03/01 08:50:53;;;;;;;15.60;11.18;;;;;;;6.79;64.33;100718.89;1790497;80;20958;-61
2023/03/01 08:53:24;;;;;;;16.17;11.38;;;;;;;6.76;64.22;100719.38;1790637;80;20938;-61
2023/03/01 08:55:54;;;;;;;15.38;10.93;;;;;;;6.74;64.16;100718.09;1790540;80;21084;-61
2023/03/01 08:58:27;;;;;;;14.13;10.70;;;;;;;6.78;64.18;100719.78;1760355;80;21529;-61
2023/03/01 09:00:59;;;;;;;12.75;9.73;;;;;;;6.77;64.10;100720.64;1790557;80;20989;-61
2023/03/01 09:03:32;;;;;;;16.93;10.85;;;;;;;6.72;64.04;100727.64;1790631;80;21024;-61
2023/03/01 09:06:07;;;;;;;13.25;9.90;;;;;;;6.71;64.09;100725.94;1790704;80;20977;-61
2023/03/01 09:08:40;;;;;;;16.27;10.85;;;;;;;6.70;64.05;100732.02;1790579;80;20988;-61
2023/03/01 09:11:11;;;;;;;14.78;10.40;;;;;;;6.71;63.93;100733.72;1790565;80;20965;-61
2023/03/01 09:13:44;;;;;;;15.28;10.48;;;;;;;6.77;63.97;100733.62;1790507;80;21007;-61
2023/03/01 09:16:18;;;;;;;16.85;11.57;;;;;;;6.75;63.72;100740.59;1790303;80;20981;-60
2023/03/01 09:18:56;;;;;;;15.30;11.12;;;;;;;6.72;63.90;100736.31;1790512;80;20981;-61
2023/03/01 09:21:31;;;;;;;13.30;10.27;;;;;;;6.70;63.72;100734.61;1790171;80;21220;-61
2023/03/01 09:24:02;;;;;;;14.70;11.08;;;;;;;6.65;63.76;100742.91;1789414;80;22045;-61
2023/03/01 09:26:35;;;;;;;16.87;11.93;;;;;;;6.73;63.91;100734.56;1789153;80;21136;-61
2023/03/01 09:33:04;;;;;;;12.50;10.15;;;;;;;6.83;63.64;100746.50;1790064;80;21052;-61
2023/03/01 09:39:12;;;;;;;13.63;9.83;;;;;;;6.92;63.42;100731.25;1758581;80;21024;-61
2023/03/01 09:42:04;;;;;;;19.37;11.68;;;;;;;6.97;63.45;100735.05;1759427;81;20976;-61
2023/03/01 09:45:05;;;;;;;17.55;11.08;;;;;;;7.01;63.51;100735.43;1722119;81;20938;-61
2023/03/01 09:47:40;;;;;;;14.03;10.35;;;;;;;7.11;63.49;100733.08;1759510;81;21575;-61
2023/03/01 09:50:17;;;;;;;13.75;9.93;;;;;;;7.03;63.09;100735.82;1758544;81;20988;-61
2023/03/01 09:53:05;;;;;;;14.80;10.93;;;;;;;7.02;63.42;100742.33;1760051;81;21062;-60
2023/03/01 09:56:09;;;;;;;10.85;9.40;;;;;;;7.15;63.37;100726.96;1759409;81;20997;-60
2023/03/01 09:58:52;;;;;;;15.48;11.68;;;;;;;7.17;63.31;100733.84;1759049;80;21881;-60
2023/03/01 10:01:58;;;;;;;18.55;13.15;;;;;;;7.34;63.34;100740.05;1759553;81;20997;-61
2023/03/01 10:04:46;;;;;;;20.25;13.70;;;;;;;7.32;63.11;100740.51;1757649;81;21725;-61
2023/03/01 10:07:47;;;;;;;16.82;13.20;;;;;;;7.38;63.11;100736.49;1757442;81;21004;-61
2023/03/01 10:10:31;;;;;;;13.20;10.82;;;;;;;7.46;63.12;100738.11;1759271;81;20968;-60
2023/03/01 10:13:24;;;;;;;14.75;10.68;;;;;;;7.65;63.06;100739.48;1759756;81;20945;-60
2023/03/01 10:16:00;;;;;;;14.13;10.63;;;;;;;7.85;62.97;100749.05;1758696;81;21088;-60
2023/03/01 10:18:36;;;;;;;14.58;10.98;;;;;;;7.95;62.90;100742.36;1758036;81;21016;-60
2023/03/01 10:21:18;;;;;;;15.78;12.68;;;;;;;7.87;62.69;100746.43;1759630;81;21015;-60
2023/03/01 10:23:54;;;;;;;14.20;10.60;;;;;;;7.72;62.63;100739.77;1759773;81;21530;-60
2023/03/01 10:27:02;;;;;;;16.32;11.43;;;;;;;7.71;62.72;100736.77;1759581;81;21052;-61
2023/03/01 10:33:39;;;;;;;19.90;14.58;;;;;;;7.95;62.80;100734.10;1669569;85;21063;-62
2023/03/01 10:44:00;;;;;;;11.30;9.30;;;;;;;9.26;62.37;100723.34;1706526;84;21049;-59
2023/03/01 10:46:34;;;;;;;13.70;10.00;;;;;;;9.61;62.15;100723.27;1706887;84;21029;-61
2023/03/01 10:49:22;;;;;;;12.53;10.05;;;;;;;9.75;62.19;100719.42;1707124;84;21069;-61
2023/03/01 10:51:54;;;;;;;13.32;9.35;;;;;;;10.01;62.48;100711.70;1706985;84;21009;-60
2023/03/01 10:54:35;;;;;;;13.10;8.95;;;;;;;10.29;61.75;100726.58;1706694;84;21014;-61
2023/03/01 11:01:23;;;;;;;11.78;9.23;;;;;;;10.06;61.49;100720.25;1706422;84;21178;-60
2023/03/01 11:07:56;;;;;;;11.08;9.43;;;;;;;9.90;61.96;100723.34;1789843;80;21319;-60
2023/03/01 11:14:22;;;;;;;11.45;8.33;;;;;;;10.29;61.54;100713.53;1789884;80;21044;-60
2023/03/01 11:20:54;;;;;;;14.07;8.95;;;;;;;10.01;61.10;100715.61;1790178;80;21040;-61
2023/03/01 11:27:31;;;;;;;12.82;9.30;;;;;;;10.91;61.35;100700.23;1789368;80;21493;-60
2023/03/01 11:34:18;;;;;;;11.18;9.43;;;;;;;11.83;60.30;100707.48;1789601;80;21036;-60
2023/03/01 11:44:21;;;;;;;11.18;9.83;;;;;;;11.88;59.94;100694.27;1759361;81;21831;-61
2023/03/01 11:50:58;;;;;;;13.20;10.28;;;;;;;13.25;59.38;100675.67;1759271;81;21046;-62
2023/03/01 11:58:09;;;;;;;11.78;9.65;;;;;;;18.03;60.13;100659.59;1759139;81;21047;-62
2023/03/01 12:04:54;;;;;;;11.25;8.78;;;;;;;19.31;58.02;100666.63;1759307;81;21504;-62
2023/03/01 12:11:41;;;;;;;12.05;9.18;;;;;;;23.20;57.71;100657.65;1759836;81;21524;-62
2023/03/01 12:18:40;;;;;;;12.58;8.60;;;;;;;26.90;56.49;100649.46;1758815;81;21084;-62
2023/03/01 12:25:32;;;;;;;9.90;7.87;;;;;;;27.93;54.62;100632.66;1759505;81;21056;-63
2023/03/01 12:32:35;;;;;;;8.93;6.87;;;;;;;30.96;51.93;100617.30;1759424;81;21040;-63
2023/03/01 12:39:34;;;;;;;9.78;8.33;;;;;;;31.88;47.58;100616.91;1759759;81;21076;-63
2023/03/01 12:42:31;;;;;;;10.35;7.92;;;;;;;28.23;45.86;100607.02;1795662;80;21017;-62
2023/03/01 12:45:42;;;;;;;10.78;8.68;;;;;;;25.59;44.95;100609.27;1794455;80;21084;-62
2023/03/01 12:48:32;;;;;;;9.85;8.10;;;;;;;23.51;44.00;100614.53;1795649;80;21029;-62
2023/03/01 12:51:10;;;;;;;9.48;7.83;;;;;;;22.51;43.85;100617.66;1795715;80;21017;-63
2023/03/01 12:57:59;;;;;;;9.55;8.55;;;;;;;24.47;41.94;100606.91;1793773;80;21368;-62
2023/03/01 13:00:47;;;;;;;9.73;8.73;;;;;;;22.56;41.31;100610.64;1768209;79;21001;-61
2023/03/01 13:07:31;;;;;;;13.95;8.85;;;;;;;19.41;40.20;100620.02;1795385;80;21827;-62
2023/03/01 13:10:11;;;;;;;9.50;8.50;;;;;;;17.50;39.88;100624.15;1786029;80;21516;-61
2023/03/01 13:12:56;;;;;;;10.15;9.05;;;;;;;16.31;39.66;100621.05;1756291;81;21009;-61
2023/03/01 13:15:30;;;;;;;12.80;9.68;;;;;;;15.35;39.61;100620.58;1756023;81;21052;-61
2023/03/01 13:18:21;;;;;;;9.65;8.65;;;;;;;14.41;39.36;100628.38;1756046;81;21083;-62
2023/03/01 13:20:57;;;;;;;12.10;8.58;;;;;;;13.66;39.37;100626.20;1755578;81;21489;-61
2023/03/01 13:23:39;;;;;;;10.55;9.10;;;;;;;13.01;39.45;100631.25;1756076;81;21001;-61
2023/03/01 13:26:20;;;;;;;13.28;9.10;;;;;;;12.50;39.43;100628.59;1756193;81;21037;-61
2023/03/01 13:32:55;;;;;;;10.35;7.53;;;;;;;11.61;39.54;100625.47;1755406;81;21021;-59
2023/03/01 13:35:43;;;;;;;9.25;7.65;;;;;;;11.08;39.80;100617.80;1755271;81;21097;-59
2023/03/01 13:38:49;;;;;;;9.30;6.97;;;;;;;10.76;39.80;100622.38;1756199;81;21533;-62
2023/03/01 13:41:40;;;;;;;8.18;6.90;;;;;;;10.42;40.08;100623.48;1689887;83;21058;-58
2023/03/01 13:44:36;;;;;;;9.13;6.65;;;;;;;10.13;40.18;100623.51;1717134;83;21153;-60
2023/03/01 13:51:11;;;;;;;10.53;6.95;;;;;;;9.58;40.50;100606.02;1794862;80;21040;-59
2023/03/01 13:57:54;;;;;;;12.23;9.05;;;;;;;9.24;40.99;100622.19;1784402;80;21017;-60
2023/03/01 14:04:40;;;;;;;13.38;7.83;;;;;;;8.98;41.43;100622.44;1784632;80;21038;-59
2023/03/01 14:11:41;;;;;;;11.60;7.60;;;;;;;8.73;42.02;100636.08;1784669;80;20957;-58
2023/03/01 14:14:45;;;;;;;13.78;8.88;;;;;;;8.55;42.26;100623.55;1783488;80;20986;-58
2023/03/01 14:17:48;;;;;;;14.35;10.20;;;;;;;8.34;42.41;100621.41;1784893;80;20954;-58
2023/03/01 14:20:30;;;;;;;16.15;9.98;;;;;;;8.19;42.69;100620.88;1784530;80;21572;-60
2023/03/01 14:23:09;;;;;;;10.40;7.60;;;;;;;8.12;43.01;100614.09;1783602;80;20981;-60
2023/03/01 14:25:58;;;;;;;14.43;9.45;;;;;;;8.04;42.93;100604.34;1779882;80;21771;-59
2023/03/01 14:28:40;;;;;;;14.03;9.30;;;;;;;7.85;43.10;100611.23;1784525;80;20997;-60
2023/03/01 14:31:43;;;;;;;13.32;9.80;;;;;;;7.69;43.25;100604.66;1784280;80;20938;-59
2023/03/01 14:34:22;;;;;;;15.25;10.75;;;;;;;7.65;43.55;100606.92;1716768;83;21012;-60
2023/03/01 14:36:58;;;;;;;15.55;9.73;;;;;;;7.56;43.78;100606.67;1715705;83;21922;-59
2023/03/01 14:39:28;;;;;;;15.50;9.55;;;;;;;7.66;43.99;100602.13;1717081;83;20974;-60
2023/03/01 14:42:01;;;;;;;16.42;10.45;;;;;;;7.74;44.21;100605.41;1716551;83;21096;-59
2023/03/01 14:48:33;;;;;;;14.60;10.15;;;;;;;7.84;44.47;100603.04;1716177;83;21077;-59
2023/03/01 14:55:07;;;;;;;18.65;11.03;;;;;;;7.76;44.88;100610.14;1716658;83;21696;-59
2023/03/01 15:01:39;;;;;;;16.25;11.57;;;;;;;7.67;45.34;100603.82;1716658;83;21072;-59
2023/03/01 15:08:14;;;;;;;15.45;11.45;;;;;;;7.54;45.67;100594.59;1784097;80;21952;-60
2023/03/01 15:14:51;;;;;;;18.98;11.43;;;;;;;7.40;46.06;100595.72;1782858;80;21045;-60
2023/03/01 15:21:28;;;;;;;18.37;10.63;;;;;;;7.23;46.42;100595.21;1784453;80;21391;-60
2023/03/01 15:27:50;;;;;;;21.27;10.13;;;;;;;7.04;46.66;100588.66;1784451;80;20970;-59
2023/03/01 15:34:26;;;;;;;16.50;9.60;;;;;;;6.98;47.15;100582.28;1784229;80;21057;-61
2023/03/01 15:41:02;;;;;;;11.78;7.62;;;;;;;6.85;47.50;100577.30;1777663;80;21039;-60
2023/03/01 15:47:35;;;;;;;11.48;5.67;;;;;;;6.73;47.76;100573.64;1768076;81;21444;-58
2023/03/01 15:54:09;;;;;;;5.10;3.25;;;;;;;6.49;48.08;100576.20;1768336;81;20988;-59
2023/03/01 16:00:40;;;;;;;5.40;3.08;;;;;;;6.14;48.33;100572.45;1768351;81;21976;-61
2023/03/01 16:07:14;;;;;;;5.80;2.77;;;;;;;5.72;48.56;100570.88;1768366;81;21016;-60
2023/03/01 16:13:48;;;;;;;6.53;3.40;;;;;;;5.36;49.12;100587.75;1768627;81;21015;-57
2023/03/01 16:20:22;;;;;;;8.25;4.05;;;;;;;5.10;49.42;100595.83;1768413;81;21091;-59
2023/03/01 16:22:53;;;;;;;8.60;4.85;;;;;;;4.91;49.64;100583.52;1736356;82;21049;-58
2023/03/01 16:25:24;;;;;;;5.67;4.20;;;;;;;4.80;49.71;100582.32;1769028;81;20968;-58
2023/03/01 16:27:59;;;;;;;7.22;4.58;;;;;;;4.72;49.91;100590.59;1704761;82;21035;-60
2023/03/01 16:30:35;;;;;;;7.33;4.45;;;;;;;4.65;50.04;100583.33;1766570;81;21875;-61
2023/03/01 16:33:08;;;;;;;5.45;3.72;;;;;;;4.56;50.13;100595.03;1735898;82;21017;-58
2023/03/01 16:35:43;;;;;;;6.15;3.50;;;;;;;4.46;50.30;100594.70;1768795;81;21083;-57
2023/03/01 16:38:17;;;;;;;5.10;3.35;;;;;;;4.37;50.23;100599.94;1735972;82;21496;-58
2023/03/01 16:40:53;;;;;;;6.47;3.30;;;;;;;4.29;50.52;100597.87;1767163;80;21061;-59
2023/03/01 16:43:24;;;;;;;5.90;3.50;;;;;;;4.18;50.68;100600.09;1728092;83;20971;-58
2023/03/01 16:45:58;;;;;;;5.28;3.52;;;;;;;4.10;50.92;100599.28;1760206;81;21099;-61
2023/03/01 16:48:29;;;;;;;4.62;3.42;;;;;;;4.00;50.90;100596.32;1727966;83;21096;-60
2023/03/01 16:51:02;;;;;;;6.00;3.67;;;;;;;3.90;51.25;100604.58;1760013;81;20956;-57
2023/03/01 16:53:35;;;;;;;6.72;3.95;;;;;;;3.83;51.34;100602.03;1728170;83;21035;-59
2023/03/01 16:56:08;;;;;;;8.08;3.85;;;;;;;3.73;51.46;100603.37;1759910;81;20997;-62
2023/03/01 16:58:41;;;;;;;5.92;3.92;;;;;;;3.64;51.56;100614.17;1728287;83;20979;-58
2023/03/01 17:01:25;;;;;;;5.60;4.15;;;;;;;3.59;51.79;100622.81;1759957;81;20957;-58
2023/03/01 17:03:54;;;;;;;5.10;3.52;;;;;;;3.55;51.95;100610.77;1727146;83;21808;-58
2023/03/01 17:06:29;;;;;;;6.87;3.95;;;;;;;3.54;52.00;100615.95;1759832;81;20953;-57
2023/03/01 17:09:00;;;;;;;5.37;3.95;;;;;;;3.48;52.19;100615.98;1725837;83;21093;-58
2023/03/01 17:11:37;;;;;;;5.33;4.22;;;;;;;3.50;52.35;100625.84;1759580;81;21625;-59
2023/03/01 17:14:12;;;;;;;6.72;4.37;;;;;;;3.48;52.47;100623.73;1727739;83;21512;-59
2023/03/01 17:16:45;;;;;;;6.53;4.55;;;;;;;3.51;52.58;100616.82;1759303;81;20938;-58
2023/03/01 17:19:17;;;;;;;8.65;4.78;;;;;;;3.52;52.72;100623.69;1727641;83;20993;-61
2023/03/01 17:21:51;;;;;;;6.55;4.90;;;;;;;3.55;52.72;100625.41;1760009;81;20969;-58
2023/03/01 17:24:21;;;;;;;7.67;5.03;;;;;;;3.54;53.01;100627.13;1727950;83;21009;-61
2023/03/01 17:26:56;;;;;;;7.87;5.60;;;;;;;3.59;53.06;100635.73;1760219;81;20980;-59
2023/03/01 17:29:29;;;;;;;9.00;6.28;;;;;;;3.62;53.28;100633.56;1728039;82;20992;-59
2023/03/01 17:36:00;;;;;;;9.85;5.55;;;;;;;3.71;53.36;100636.10;1727287;83;21069;-61
2023/03/01 17:46:07;;;;;;;11.30;6.03;;;;;;;3.73;54.00;100652.45;1744949;81;21056;-59
2023/03/01 17:48:52;;;;;;;;;;;;;;;;;;;;;
2023/03/01 17:55:14;;;;;;;3.70;3.22;;;;;;;3.70;54.06;100674.43;1792402;80;20993;-61